Time;durP1;ratioP1;P1;durP2;ratioP2;P2;SDS_P1;SDS_P2;PMS_P1;PMS_P2;Temp;Humidity;BMP_temperature;BMP_pressure;BME280_temperature;BME280_humidity;BME280_pressure;Samples;Min_cycle;Max_cycle;Signal;HPM_P1;HPM_P2
2024/04/10 00:01:15;;;;;;;28.40;20.85;;;;;;;;;;5396413;26;19991;-42
2024/04/10 00:03:42;;;;;;;28.13;19.95;;;;;;;;;;5396048;26;20087;-43
2024/04/10 00:06:09;;;;;;;30.60;20.42;;;;;;;;;;5396681;26;19980;-43
2024/04/10 00:08:36;;;;;;;30.58;21.65;;;;;;;;;;5396502;26;19988;-43
2024/04/10 00:11:03;;;;;;;28.65;19.63;;;;;;;;;;5396639;26;19992;-43
2024/04/10 00:13:33;;;;;;;28.45;18.65;;;;;;;;;;5396521;26;19992;-45
2024/04/10 00:16:01;;;;;;;26.67;18.02;;;;;;;;;;5396168;26;20011;-47
2024/04/10 00:18:28;;;;;;;27.40;17.50;;;;;;;;;;5425274;26;20020;-41
2024/04/10 00:20:56;;;;;;;24.50;17.25;;;;;;;;;;5396423;26;19995;-42
2024/04/10 00:23:23;;;;;;;26.85;17.48;;;;;;;;;;5396248;26;20046;-47
2024/04/10 00:25:56;;;;;;;22.70;17.10;;;;;;;;;;5396559;26;19984;-44
2024/04/10 00:28:22;;;;;;;22.15;16.10;;;;;;;;;;5396494;26;19984;-41
2024/04/10 00:30:49;;;;;;;20.55;15.52;;;;;;;;;;5396414;26;19999;-47
2024/04/10 00:33:16;;;;;;;18.83;14.95;;;;;;;;;;5396395;26;20045;-46
2024/04/10 00:35:42;;;;;;;18.55;13.77;;;;;;;;;;5396425;26;20055;-45
2024/04/10 00:38:12;;;;;;;16.75;12.85;;;;;;;;;;5396042;26;20046;-41
2024/04/10 00:40:39;;;;;;;23.85;14.02;;;;;;;;;;5396328;26;19998;-41
2024/04/10 00:43:06;;;;;;;18.77;13.68;;;;;;;;;;5399482;26;20016;-39
2024/04/10 00:45:36;;;;;;;20.50;13.52;;;;;;;;;;5428291;26;19991;-40
2024/04/10 00:48:02;;;;;;;19.50;13.20;;;;;;;;;;5420563;26;19992;-41
2024/04/10 00:50:30;;;;;;;17.38;13.02;;;;;;;;;;5410789;26;20003;-42
2024/04/10 00:53:00;;;;;;;18.42;12.77;;;;;;;;;;5396011;26;20043;-40
2024/04/10 00:55:27;;;;;;;19.10;13.10;;;;;;;;;;5399683;26;19988;-45
2024/04/10 00:57:54;;;;;;;20.73;12.55;;;;;;;;;;5410906;26;19996;-40
2024/04/10 01:00:22;;;;;;;22.33;12.85;;;;;;;;;;5402797;26;19992;-39
2024/04/10 01:02:49;;;;;;;19.30;12.85;;;;;;;;;;5408721;26;19988;-41
2024/04/10 01:05:16;;;;;;;20.17;13.43;;;;;;;;;;5395744;26;20212;-52
2024/04/10 01:07:44;;;;;;;17.38;13.25;;;;;;;;;;5400589;26;20024;-39
2024/04/10 01:10:11;;;;;;;17.52;12.88;;;;;;;;;;5411590;26;19988;-48
2024/04/10 01:12:43;;;;;;;22.10;12.32;;;;;;;;;;5394933;26;20001;-48
2024/04/10 01:15:10;;;;;;;;;;;;;;;;;;5407103;26;20042;-49
2024/04/10 01:17:37;;;;;;;18.25;12.55;;;;;;;;;;5416373;26;19944;-48
2024/04/10 01:20:07;;;;;;;16.48;11.68;;;;;;;;;;5431165;26;19988;-49
2024/04/10 01:22:37;;;;;;;20.65;12.15;;;;;;;;;;5421059;26;20008;-49
2024/04/10 01:25:04;;;;;;;20.48;12.55;;;;;;;;;;5411361;26;19988;-51
2024/04/10 01:27:33;;;;;;;18.83;12.10;;;;;;;;;;5395572;26;19988;-49
2024/04/10 01:30:00;;;;;;;22.90;12.50;;;;;;;;;;5395404;26;20137;-47
2024/04/10 01:32:28;;;;;;;20.02;11.90;;;;;;;;;;5395372;26;19995;-48
2024/04/10 01:34:54;;;;;;;20.27;12.65;;;;;;;;;;5395281;26;19984;-48
2024/04/10 01:37:22;;;;;;;18.30;12.98;;;;;;;;;;5395336;26;20122;-52
2024/04/10 01:39:49;;;;;;;22.13;13.05;;;;;;;;;;5395289;26;19991;-41
2024/04/10 01:42:16;;;;;;;24.63;13.18;;;;;;;;;;5395032;26;20034;-48
2024/04/10 01:44:43;;;;;;;19.58;12.88;;;;;;;;;;5395394;26;19988;-53
2024/04/10 01:47:10;;;;;;;16.77;12.15;;;;;;;;;;5395481;26;20000;-53
2024/04/10 01:49:37;;;;;;;20.25;12.18;;;;;;;;;;5394198;26;19992;-48
2024/04/10 01:52:04;;;;;;;18.58;11.68;;;;;;;;;;5394840;26;20042;-49
2024/04/10 01:54:31;;;;;;;16.05;11.85;;;;;;;;;;5395035;26;19994;-43
2024/04/10 01:56:58;;;;;;;15.82;11.75;;;;;;;;;;5403804;26;20200;-48
2024/04/10 01:59:25;;;;;;;16.83;11.38;;;;;;;;;;5430070;26;20084;-51
2024/04/10 02:01:53;;;;;;;20.40;12.38;;;;;;;;;;5430557;26;20016;-50
2024/04/10 02:04:20;;;;;;;16.30;12.15;;;;;;;;;;5430252;26;19988;-45
2024/04/10 02:06:47;;;;;;;14.63;11.00;;;;;;;;;;5430174;26;20041;-50
2024/04/10 02:09:16;;;;;;;17.85;11.77;;;;;;;;;;5431131;26;20032;-49
2024/04/10 02:11:43;;;;;;;17.35;11.10;;;;;;;;;;5430452;26;19992;-49
2024/04/10 02:14:10;;;;;;;16.90;11.57;;;;;;;;;;5430317;26;20085;-49
2024/04/10 02:16:37;;;;;;;14.20;10.57;;;;;;;;;;5430319;26;20088;-47
2024/04/10 02:19:04;;;;;;;16.75;11.05;;;;;;;;;;5418906;26;20146;-52
2024/04/10 02:21:31;;;;;;;16.70;10.63;;;;;;;;;;5398522;26;20004;-50
2024/04/10 02:23:58;;;;;;;16.45;10.48;;;;;;;;;;5393931;26;20044;-46
2024/04/10 02:26:25;;;;;;;19.50;11.25;;;;;;;;;;5400066;26;19991;-46
2024/04/10 02:28:52;;;;;;;17.38;10.43;;;;;;;;;;5413923;26;20004;-43
2024/04/10 02:31:19;;;;;;;14.13;9.82;;;;;;;;;;5398052;26;19980;-57
2024/04/10 02:33:45;;;;;;;14.85;10.02;;;;;;;;;;5397873;26;19996;-52
2024/04/10 02:36:12;;;;;;;15.95;9.68;;;;;;;;;;5398020;26;19992;-50
2024/04/10 02:38:40;;;;;;;13.90;9.65;;;;;;;;;;5397108;26;20017;-47
2024/04/10 02:41:07;;;;;;;14.60;9.30;;;;;;;;;;5397598;26;19988;-53
2024/04/10 02:43:34;;;;;;;15.75;10.27;;;;;;;;;;5397961;26;19996;-49
2024/04/10 02:46:02;;;;;;;18.25;10.80;;;;;;;;;;5397524;26;20226;-48
2024/04/10 02:48:29;;;;;;;15.68;10.35;;;;;;;;;;5397328;26;20050;-50
2024/04/10 02:50:56;;;;;;;16.50;9.75;;;;;;;;;;5397518;26;20121;-51
2024/04/10 02:53:23;;;;;;;17.17;9.18;;;;;;;;;;5397246;26;20050;-50
2024/04/10 02:55:50;;;;;;;14.57;9.80;;;;;;;;;;5397226;26;19988;-43
2024/04/10 02:58:18;;;;;;;21.05;9.68;;;;;;;;;;5397377;26;20012;-49
2024/04/10 03:00:52;;;;;;;15.40;9.80;;;;;;;;;;5397603;26;20024;-49
2024/04/10 03:03:19;;;;;;;16.85;10.07;;;;;;;;;;5397501;26;20197;-47
2024/04/10 03:05:46;;;;;;;17.33;10.15;;;;;;;;;;5405817;26;19988;-42
2024/04/10 03:08:14;;;;;;;15.10;9.63;;;;;;;;;;5419325;26;20015;-44
2024/04/10 03:10:41;;;;;;;15.55;9.50;;;;;;;;;;5399062;26;19984;-42
2024/04/10 03:13:07;;;;;;;17.65;10.40;;;;;;;;;;5397327;26;19992;-43
2024/04/10 03:15:34;;;;;;;14.43;10.07;;;;;;;;;;5397546;26;20009;-41
2024/04/10 03:18:02;;;;;;;12.52;9.25;;;;;;;;;;5410727;26;19999;-43
2024/04/10 03:20:28;;;;;;;14.27;9.30;;;;;;;;;;5401985;26;20189;-42
2024/04/10 03:22:55;;;;;;;13.82;9.35;;;;;;;;;;5397144;26;20209;-47
2024/04/10 03:25:21;;;;;;;16.88;9.70;;;;;;;;;;5397089;26;20185;-42
2024/04/10 03:27:48;;;;;;;14.68;9.77;;;;;;;;;;5397100;26;20251;-42
2024/04/10 03:30:14;;;;;;;10.82;9.18;;;;;;;;;;5397178;26;20095;-47
2024/04/10 03:32:42;;;;;;;12.95;9.25;;;;;;;;;;5396883;26;19988;-44
2024/04/10 03:35:08;;;;;;;12.32;9.40;;;;;;;;;;5397448;26;19984;-54
2024/04/10 03:37:35;;;;;;;14.60;9.50;;;;;;;;;;5395788;26;19989;-42
2024/04/10 03:40:01;;;;;;;15.30;9.57;;;;;;;;;;5396795;26;20048;-45
2024/04/10 03:42:28;;;;;;;13.27;8.75;;;;;;;;;;5397131;26;20046;-46
2024/04/10 03:44:54;;;;;;;13.30;9.50;;;;;;;;;;5397172;26;19999;-40
2024/04/10 03:47:21;;;;;;;11.90;9.57;;;;;;;;;;5400866;26;19989;-43
2024/04/10 03:49:48;;;;;;;14.10;9.48;;;;;;;;;;5412627;26;20042;-46
2024/04/10 03:52:16;;;;;;;16.13;9.70;;;;;;;;;;5396591;26;20102;-50
2024/04/10 03:54:42;;;;;;;17.05;9.43;;;;;;;;;;5396609;26;19992;-43
2024/04/10 03:57:09;;;;;;;15.85;9.50;;;;;;;;;;5396743;26;20008;-39
2024/04/10 03:59:36;;;;;;;13.95;9.75;;;;;;;;;;5396621;26;19992;-50
2024/04/10 04:02:02;;;;;;;16.80;8.93;;;;;;;;;;5396585;26;20124;-46
2024/04/10 04:04:29;;;;;;;14.13;9.70;;;;;;;;;;5396758;26;19988;-41
2024/04/10 04:06:56;;;;;;;14.07;9.43;;;;;;;;;;5397046;26;19995;-42
2024/04/10 04:09:23;;;;;;;16.13;9.65;;;;;;;;;;5397006;26;19992;-41
2024/04/10 04:11:50;;;;;;;12.50;9.18;;;;;;;;;;5396818;26;19992;-41
2024/04/10 04:14:16;;;;;;;14.45;9.52;;;;;;;;;;5397037;26;20003;-45
2024/04/10 04:16:43;;;;;;;13.95;9.35;;;;;;;;;;5396489;26;19992;-41
2024/04/10 04:19:10;;;;;;;13.60;9.18;;;;;;;;;;5396374;26;20002;-42
2024/04/10 04:21:37;;;;;;;12.82;9.10;;;;;;;;;;5428081;26;19988;-42
2024/04/10 04:24:04;;;;;;;11.15;8.52;;;;;;;;;;5430889;26;19991;-43
2024/04/10 04:26:30;;;;;;;16.52;9.88;;;;;;;;;;5430860;26;20193;-41
2024/04/10 04:28:57;;;;;;;14.75;9.57;;;;;;;;;;5430849;26;20100;-43
2024/04/10 04:31:23;;;;;;;14.73;9.63;;;;;;;;;;5408166;26;19992;-42
2024/04/10 04:33:50;;;;;;;16.27;9.60;;;;;;;;;;5424002;26;20027;-41
2024/04/10 04:36:17;;;;;;;14.90;9.75;;;;;;;;;;5396275;26;19990;-41
2024/04/10 04:38:43;;;;;;;13.10;9.75;;;;;;;;;;5397068;26;20027;-39
2024/04/10 04:41:10;;;;;;;16.08;9.98;;;;;;;;;;5416557;26;19992;-50
2024/04/10 04:43:37;;;;;;;14.00;9.50;;;;;;;;;;5413153;26;19992;-42
2024/04/10 04:46:03;;;;;;;15.57;9.63;;;;;;;;;;5412375;26;20031;-41
2024/04/10 04:48:30;;;;;;;12.25;9.43;;;;;;;;;;5414873;26;20208;-42
2024/04/10 04:50:56;;;;;;;10.88;8.70;;;;;;;;;;5412955;26;20100;-46
2024/04/10 04:53:23;;;;;;;12.80;9.40;;;;;;;;;;5412302;26;20053;-43
2024/04/10 04:55:50;;;;;;;15.65;9.50;;;;;;;;;;5415141;26;20204;-42
2024/04/10 04:58:17;;;;;;;13.82;9.23;;;;;;;;;;5412598;26;20025;-41
2024/04/10 05:00:43;;;;;;;12.73;9.90;;;;;;;;;;5412034;26;20004;-49
2024/04/10 05:04:53;;;;;;;30.00;15.48;;;;;;;;;;5413557;26;19999;-45
2024/04/10 05:05:57;;;;;;;17.05;11.05;;;;;;;;;;5412587;26;20053;-43
2024/04/10 05:08:23;;;;;;;16.42;10.65;;;;;;;;;;5411778;26;20006;-47
2024/04/10 05:10:50;;;;;;;17.83;10.30;;;;;;;;;;5415021;26;20015;-40
2024/04/10 05:13:16;;;;;;;17.42;10.70;;;;;;;;;;5412395;26;20007;-43
2024/04/10 05:15:43;;;;;;;15.80;10.70;;;;;;;;;;5412107;26;19998;-47
2024/04/10 05:18:09;;;;;;;13.20;9.88;;;;;;;;;;5414777;26;20006;-45
2024/04/10 05:20:36;;;;;;;14.63;9.85;;;;;;;;;;5412434;26;20004;-43
2024/04/10 05:23:03;;;;;;;15.85;9.48;;;;;;;;;;5428732;26;19991;-42
2024/04/10 05:25:30;;;;;;;15.50;10.10;;;;;;;;;;5431159;26;20048;-45
2024/04/10 05:27:56;;;;;;;14.27;9.35;;;;;;;;;;5431113;26;19988;-43
2024/04/10 05:30:23;;;;;;;13.02;9.25;;;;;;;;;;5431232;26;19987;-43
2024/04/10 05:32:50;;;;;;;15.98;9.10;;;;;;;;;;5430805;26;19983;-46
2024/04/10 05:35:16;;;;;;;13.60;9.35;;;;;;;;;;5431096;26;19988;-42
2024/04/10 05:37:44;;;;;;;13.13;9.13;;;;;;;;;;5430948;26;20209;-45
2024/04/10 05:40:16;;;;;;;12.98;9.60;;;;;;;;;;5430894;26;20135;-42
2024/04/10 05:42:43;;;;;;;14.05;8.77;;;;;;;;;;5417371;26;19988;-43
2024/04/10 05:45:11;;;;;;;12.70;9.10;;;;;;;;;;5429217;26;20002;-42
2024/04/10 05:47:38;;;;;;;13.35;8.82;;;;;;;;;;5395156;26;20083;-45
2024/04/10 05:50:05;;;;;;;12.02;8.90;;;;;;;;;;5395371;26;19988;-45
2024/04/10 05:52:32;;;;;;;13.43;9.65;;;;;;;;;;5394989;26;20041;-40
2024/04/10 05:54:59;;;;;;;13.40;9.50;;;;;;;;;;5395284;26;20016;-49
2024/04/10 05:57:27;;;;;;;11.57;9.32;;;;;;;;;;5395178;26;20007;-42
2024/04/10 05:59:56;;;;;;;10.30;8.85;;;;;;;;;;5394358;26;19992;-44
2024/04/10 06:02:23;;;;;;;13.38;9.15;;;;;;;;;;5395018;26;19996;-43
2024/04/10 06:04:53;;;;;;;11.40;8.48;;;;;;;;;;5395143;26;19988;-42
2024/04/10 06:07:20;;;;;;;12.40;8.77;;;;;;;;;;5394847;26;20028;-46
2024/04/10 06:09:47;;;;;;;11.82;8.65;;;;;;;;;;5394979;26;19995;-43
2024/04/10 06:12:13;;;;;;;14.20;9.45;;;;;;;;;;5394843;26;20034;-43
2024/04/10 06:14:40;;;;;;;11.52;8.30;;;;;;;;;;5394827;26;19999;-48
2024/04/10 06:17:06;;;;;;;16.55;8.80;;;;;;;;;;5395040;26;20046;-53
2024/04/10 06:19:33;;;;;;;12.18;8.98;;;;;;;;;;5394883;26;19988;-48
2024/04/10 06:21:59;;;;;;;12.15;8.75;;;;;;;;;;5394859;26;20046;-40
2024/04/10 06:24:26;;;;;;;11.73;8.50;;;;;;;;;;5394618;26;19987;-40
2024/04/10 06:26:53;;;;;;;12.70;8.88;;;;;;;;;;5394656;26;19996;-41
2024/04/10 06:29:19;;;;;;;12.85;9.35;;;;;;;;;;5394678;26;20104;-41
2024/04/10 06:31:46;;;;;;;13.25;8.98;;;;;;;;;;5394379;26;19988;-45
2024/04/10 06:34:12;;;;;;;12.63;9.25;;;;;;;;;;5394579;26;19992;-43
2024/04/10 06:36:39;;;;;;;12.55;9.32;;;;;;;;;;5394450;26;19992;-44
2024/04/10 06:39:07;;;;;;;14.73;9.48;;;;;;;;;;5394332;26;20004;-43
2024/04/10 06:41:33;;;;;;;13.15;9.10;;;;;;;;;;5394435;26;20000;-44
2024/04/10 06:44:00;;;;;;;13.18;8.65;;;;;;;;;;5394467;26;20046;-48
2024/04/10 06:46:27;;;;;;;15.85;9.02;;;;;;;;;;5394141;26;19996;-47
2024/04/10 06:48:53;;;;;;;12.07;8.52;;;;;;;;;;5394406;26;19988;-42
2024/04/10 06:51:20;;;;;;;10.65;8.63;;;;;;;;;;5394368;26;20006;-44
2024/04/10 06:53:47;;;;;;;11.57;8.27;;;;;;;;;;5394021;26;19988;-47
2024/04/10 06:56:13;;;;;;;12.30;8.98;;;;;;;;;;5394177;26;20142;-49
2024/04/10 06:58:40;;;;;;;10.02;8.50;;;;;;;;;;5394536;26;20205;-46
2024/04/10 07:01:08;;;;;;;13.13;8.82;;;;;;;;;;5393860;26;19996;-43
2024/04/10 07:03:43;;;;;;;11.00;8.38;;;;;;;;;;5394115;26;19991;-42
2024/04/10 07:06:11;;;;;;;13.05;9.55;;;;;;;;;;5393962;26;20000;-42
2024/04/10 07:08:39;;;;;;;11.60;8.88;;;;;;;;;;5393782;26;19994;-49
2024/04/10 07:11:11;;;;;;;13.02;8.85;;;;;;;;;;5394023;26;19984;-42
2024/04/10 07:13:37;;;;;;;;;;;;;;;;;;5397712;26;20007;-43
2024/04/10 07:16:04;;;;;;;14.02;9.27;;;;;;;;;;5397497;26;19929;-42
2024/04/10 07:18:31;;;;;;;11.45;8.82;;;;;;;;;;5397483;26;20193;-43
2024/04/10 07:20:59;;;;;;;15.15;9.50;;;;;;;;;;5397312;26;19988;-49
2024/04/10 07:23:26;;;;;;;15.55;9.35;;;;;;;;;;5397447;26;20046;-43
2024/04/10 07:25:53;;;;;;;11.98;9.27;;;;;;;;;;5397386;26;19987;-41
2024/04/10 07:28:19;;;;;;;14.63;9.60;;;;;;;;;;5397213;26;20000;-44
2024/04/10 07:30:49;;;;;;;11.90;9.38;;;;;;;;;;5397397;26;19995;-42
2024/04/10 07:33:16;;;;;;;13.90;9.00;;;;;;;;;;5397123;26;19999;-43
2024/04/10 07:35:44;;;;;;;10.98;9.02;;;;;;;;;;5397116;26;20007;-42
2024/04/10 07:38:10;;;;;;;13.38;8.95;;;;;;;;;;5397070;26;19992;-44
2024/04/10 07:40:37;;;;;;;10.75;9.02;;;;;;;;;;5397170;26;19988;-44
2024/04/10 07:43:04;;;;;;;13.07;8.73;;;;;;;;;;5397209;26;19996;-49
2024/04/10 07:45:30;;;;;;;12.90;9.55;;;;;;;;;;5397085;26;19988;-49
2024/04/10 07:48:00;;;;;;;15.00;9.40;;;;;;;;;;5397144;26;19992;-45
2024/04/10 07:50:26;;;;;;;10.45;8.93;;;;;;;;;;5396813;26;20212;-44
2024/04/10 07:52:53;;;;;;;13.05;9.38;;;;;;;;;;5396748;26;19992;-48
2024/04/10 07:55:20;;;;;;;16.55;9.80;;;;;;;;;;5397033;26;19988;-44
2024/04/10 07:57:46;;;;;;;17.02;9.75;;;;;;;;;;5396820;26;20003;-39
2024/04/10 08:00:14;;;;;;;11.90;9.15;;;;;;;;;;5396869;26;20186;-41
2024/04/10 08:02:40;;;;;;;12.95;9.32;;;;;;;;;;5396847;26;20000;-42
2024/04/10 08:05:09;;;;;;;14.63;9.55;;;;;;;;;;5396776;26;19984;-42
2024/04/10 08:07:37;;;;;;;13.85;9.80;;;;;;;;;;5396710;26;19996;-40
2024/04/10 08:10:04;;;;;;;13.65;10.00;;;;;;;;;;5396784;26;19984;-43
2024/04/10 08:12:31;;;;;;;12.27;9.38;;;;;;;;;;5396555;26;19992;-39
2024/04/10 08:14:57;;;;;;;14.05;9.18;;;;;;;;;;5396591;26;20004;-41
2024/04/10 08:17:25;;;;;;;14.65;10.02;;;;;;;;;;5395784;26;19995;-44
2024/04/10 08:19:53;;;;;;;12.80;9.23;;;;;;;;;;5396656;26;19992;-41
2024/04/10 08:22:20;;;;;;;10.93;9.27;;;;;;;;;;5396439;26;19988;-49
2024/04/10 08:24:47;;;;;;;12.55;9.32;;;;;;;;;;5395939;26;20000;-51
2024/04/10 08:27:13;;;;;;;14.38;10.13;;;;;;;;;;5396483;26;20217;-43
2024/04/10 08:29:40;;;;;;;14.32;9.57;;;;;;;;;;5396360;26;19999;-42
2024/04/10 08:32:06;;;;;;;15.20;9.95;;;;;;;;;;5396377;26;19995;-42
2024/04/10 08:34:33;;;;;;;13.35;9.82;;;;;;;;;;5396412;26;20003;-41
2024/04/10 08:36:59;;;;;;;11.20;9.35;;;;;;;;;;5396060;26;19995;-41
2024/04/10 08:39:26;;;;;;;11.27;9.35;;;;;;;;;;5396383;26;20008;-44
2024/04/10 08:41:53;;;;;;;15.63;9.20;;;;;;;;;;5396286;26;20015;-42
2024/04/10 08:44:21;;;;;;;13.38;9.25;;;;;;;;;;5396103;26;19992;-49
2024/04/10 08:46:50;;;;;;;12.95;9.20;;;;;;;;;;5396256;26;19995;-49
2024/04/10 08:49:17;;;;;;;13.43;9.57;;;;;;;;;;5396241;26;19988;-48
2024/04/10 08:51:44;;;;;;;15.13;9.77;;;;;;;;;;5395867;26;20046;-40
2024/04/10 08:54:12;;;;;;;15.38;9.82;;;;;;;;;;5396154;26;20003;-40
2024/04/10 08:56:39;;;;;;;14.13;9.13;;;;;;;;;;5396067;26;19995;-43
2024/04/10 08:59:05;;;;;;;14.52;8.63;;;;;;;;;;5395873;26;20040;-42
2024/04/10 09:01:41;;;;;;;13.38;9.20;;;;;;;;;;5396028;26;20034;-42
2024/04/10 09:04:08;;;;;;;13.05;9.00;;;;;;;;;;5395909;26;19984;-45
2024/04/10 09:06:35;;;;;;;14.27;9.15;;;;;;;;;;5395921;26;20004;-48
2024/04/10 09:09:09;;;;;;;14.38;9.13;;;;;;;;;;5395972;26;20048;-46
2024/04/10 09:11:38;;;;;;;14.73;8.75;;;;;;;;;;5395636;26;20200;-41
2024/04/10 09:14:06;;;;;;;14.90;9.40;;;;;;;;;;5395827;26;20034;-44
2024/04/10 09:16:33;;;;;;;12.82;9.55;;;;;;;;;;5395812;26;20008;-42
2024/04/10 09:19:12;;;;;;;10.35;8.50;;;;;;;;;;5395628;26;19984;-43
2024/04/10 09:21:39;;;;;;;10.52;8.68;;;;;;;;;;5395710;26;20007;-45
2024/04/10 09:24:07;;;;;;;15.05;8.82;;;;;;;;;;5395783;26;20209;-44
2024/04/10 09:26:36;;;;;;;12.85;9.00;;;;;;;;;;5395689;26;20227;-41
2024/04/10 09:29:06;;;;;;;12.05;9.55;;;;;;;;;;5395688;26;20034;-46
2024/04/10 09:31:33;;;;;;;13.55;9.18;;;;;;;;;;5395471;26;20000;-47
2024/04/10 09:33:59;;;;;;;11.00;9.40;;;;;;;;;;5395537;26;20197;-49
2024/04/10 09:36:27;;;;;;;13.18;9.35;;;;;;;;;;5393962;26;20000;-43
2024/04/10 09:38:54;;;;;;;14.95;9.45;;;;;;;;;;5395388;26;19984;-43
2024/04/10 09:41:23;;;;;;;13.05;10.05;;;;;;;;;;5395425;26;19984;-42
2024/04/10 09:43:53;;;;;;;11.90;9.27;;;;;;;;;;5395465;26;19999;-42
2024/04/10 09:46:20;;;;;;;12.20;8.82;;;;;;;;;;5395154;26;20012;-41
2024/04/10 09:48:48;;;;;;;12.93;8.52;;;;;;;;;;5395523;26;19992;-40
2024/04/10 09:51:20;;;;;;;15.65;9.57;;;;;;;;;;5395064;26;19994;-44
2024/04/10 09:53:46;;;;;;;13.50;9.13;;;;;;;;;;5395973;26;19992;-42
2024/04/10 09:58:12;;;;;;;13.00;9.63;;;;;;;;;;5485605;26;20340;-46
2024/04/10 10:00:38;;;;;;;16.85;9.80;;;;;;;;;;5449223;26;20040;-41
2024/04/10 10:03:06;;;;;;;13.40;10.15;;;;;;;;;;5449102;26;19999;-45
2024/04/10 10:05:33;;;;;;;14.25;10.48;;;;;;;;;;5449279;26;19998;-42
2024/04/10 10:08:15;;;;;;;14.00;10.15;;;;;;;;;;5449198;26;20007;-44
2024/04/10 10:10:52;;;;;;;13.00;9.52;;;;;;;;;;5448946;26;20092;-42
2024/04/10 10:13:31;;;;;;;13.80;9.27;;;;;;;;;;5449162;26;19999;-42
2024/04/10 10:16:02;;;;;;;12.30;9.88;;;;;;;;;;5448719;26;20011;-45
2024/04/10 10:18:29;;;;;;;13.10;9.93;;;;;;;;;;5449039;26;19987;-49
2024/04/10 10:21:02;;;;;;;15.05;9.93;;;;;;;;;;5448919;26;19991;-44
2024/04/10 10:23:28;;;;;;;14.25;9.48;;;;;;;;;;5448948;26;19983;-42
2024/04/10 10:25:55;;;;;;;16.75;9.57;;;;;;;;;;5448869;26;20011;-42
2024/04/10 10:28:21;;;;;;;15.88;10.23;;;;;;;;;;5448671;26;19987;-44
2024/04/10 10:30:48;;;;;;;13.52;10.25;;;;;;;;;;5448822;26;20208;-42
2024/04/10 10:33:19;;;;;;;14.07;10.20;;;;;;;;;;5448889;26;19988;-42
2024/04/10 10:35:46;;;;;;;18.13;9.57;;;;;;;;;;5448562;26;19983;-42
2024/04/10 10:38:12;;;;;;;15.15;10.35;;;;;;;;;;5420155;26;20052;-42
2024/04/10 10:40:39;;;;;;;15.93;9.60;;;;;;;;;;5412969;26;19988;-42
2024/04/10 10:43:07;;;;;;;15.52;9.82;;;;;;;;;;5393086;26;20007;-48
2024/04/10 10:45:34;;;;;;;18.15;9.90;;;;;;;;;;5377715;26;19992;-41
2024/04/10 10:48:06;;;;;;;15.00;9.27;;;;;;;;;;5377724;26;20205;-41
2024/04/10 10:50:33;;;;;;;20.30;10.40;;;;;;;;;;5412762;26;20081;-50
2024/04/10 10:53:00;;;;;;;17.65;9.55;;;;;;;;;;5412858;26;20020;-41
2024/04/10 10:55:27;;;;;;;16.08;9.68;;;;;;;;;;5412856;26;20208;-42
2024/04/10 10:58:06;;;;;;;15.00;9.45;;;;;;;;;;5412402;26;19988;-51
2024/04/10 11:00:34;;;;;;;15.70;10.13;;;;;;;;;;5412875;26;20008;-41
2024/04/10 11:03:14;;;;;;;13.27;9.93;;;;;;;;;;5386309;26;19999;-41
2024/04/10 11:05:40;;;;;;;18.92;10.32;;;;;;;;;;5377277;26;19988;-41
2024/04/10 11:08:07;;;;;;;21.52;10.70;;;;;;;;;;5369516;26;19993;-47
2024/04/10 11:10:34;;;;;;;19.60;11.05;;;;;;;;;;5362195;26;19996;-49
2024/04/10 11:13:00;;;;;;;17.83;11.00;;;;;;;;;;5362419;26;19993;-42
2024/04/10 11:15:27;;;;;;;18.45;11.15;;;;;;;;;;5362373;26;20093;-42
2024/04/10 11:18:03;;;;;;;20.73;11.00;;;;;;;;;;5362044;26;19993;-45
2024/04/10 11:20:30;;;;;;;20.35;11.02;;;;;;;;;;5362271;26;19989;-43
2024/04/10 11:23:03;;;;;;;13.68;10.27;;;;;;;;;;5366763;26;19989;-45
2024/04/10 11:25:30;;;;;;;18.05;10.90;;;;;;;;;;5397181;26;20004;-50
2024/04/10 11:27:57;;;;;;;17.70;10.45;;;;;;;;;;5378308;26;19989;-43
2024/04/10 11:30:24;;;;;;;15.68;10.38;;;;;;;;;;5362191;26;20005;-44
2024/04/10 11:32:52;;;;;;;15.73;10.40;;;;;;;;;;5362032;26;19988;-45
2024/04/10 11:35:18;;;;;;;15.98;10.30;;;;;;;;;;5362135;26;20017;-41
2024/04/10 11:37:45;;;;;;;15.52;9.90;;;;;;;;;;5361878;26;19996;-54
2024/04/10 11:40:12;;;;;;;14.90;10.27;;;;;;;;;;5361490;26;19989;-42
2024/04/10 11:42:39;;;;;;;13.88;9.85;;;;;;;;;;5361424;26;19989;-41
2024/04/10 11:45:09;;;;;;;12.05;9.60;;;;;;;;;;5361622;26;19993;-40
2024/04/10 11:47:41;;;;;;;11.23;10.02;;;;;;;;;;5361462;26;20136;-44
2024/04/10 11:50:08;;;;;;;14.45;9.75;;;;;;;;;;5361626;26;19988;-44
2024/04/10 11:52:35;;;;;;;15.15;9.75;;;;;;;;;;5361291;26;20084;-39
2024/04/10 11:55:03;;;;;;;14.55;9.48;;;;;;;;;;5361492;26;20033;-41
2024/04/10 11:57:29;;;;;;;15.45;10.18;;;;;;;;;;5361150;26;19993;-44
2024/04/10 11:59:56;;;;;;;16.42;10.43;;;;;;;;;;5361223;26;19989;-41
2024/04/10 12:02:24;;;;;;;16.75;10.10;;;;;;;;;;5361276;26;19989;-44
2024/04/10 12:04:50;;;;;;;19.00;10.00;;;;;;;;;;5361280;26;20025;-43
2024/04/10 12:07:17;;;;;;;16.38;9.95;;;;;;;;;;5360959;26;20004;-45
2024/04/10 12:09:45;;;;;;;18.45;10.30;;;;;;;;;;5361534;26;19989;-44
2024/04/10 12:12:12;;;;;;;15.85;9.95;;;;;;;;;;5379829;26;19996;-42
2024/04/10 12:14:42;;;;;;;16.00;9.90;;;;;;;;;;5377487;26;20039;-47
2024/04/10 12:17:09;;;;;;;15.75;9.50;;;;;;;;;;5369829;26;20000;-42
2024/04/10 12:19:36;;;;;;;11.63;9.38;;;;;;;;;;5396185;26;20012;-50
2024/04/10 12:22:02;;;;;;;12.50;9.40;;;;;;;;;;5382454;26;19993;-42
2024/04/10 12:24:29;;;;;;;17.42;10.23;;;;;;;;;;5361181;26;20001;-44
2024/04/10 12:26:59;;;;;;;12.07;9.38;;;;;;;;;;5361037;26;20017;-47
2024/04/10 12:29:25;;;;;;;13.15;9.70;;;;;;;;;;5360890;26;19985;-53
2024/04/10 12:31:52;;;;;;;11.60;9.48;;;;;;;;;;5360986;26;20051;-45
2024/04/10 12:34:18;;;;;;;13.63;9.18;;;;;;;;;;5360956;26;19996;-42
2024/04/10 12:39:30;;;;;;;13.77;8.90;;;;;;;;;;5361009;26;19995;-43
2024/04/10 12:41:57;;;;;;;15.23;8.50;;;;;;;;;;5360981;26;20009;-49
2024/04/10 12:44:23;;;;;;;15.68;8.70;;;;;;;;;;5360786;26;19981;-49
2024/04/10 12:46:55;;;;;;;13.98;8.77;;;;;;;;;;5360931;26;19989;-47
2024/04/10 12:49:22;;;;;;;10.73;8.68;;;;;;;;;;5360701;26;19989;-48
2024/04/10 12:51:49;;;;;;;14.27;9.15;;;;;;;;;;5360735;26;19993;-50
2024/04/10 12:54:16;;;;;;;12.20;8.70;;;;;;;;;;5360930;26;20039;-50
2024/04/10 12:56:45;;;;;;;15.02;10.70;;;;;;;;;;5360488;26;20022;-48
2024/04/10 12:59:14;;;;;;;13.45;10.30;;;;;;;;;;5361126;26;19989;-49
2024/04/10 13:01:40;;;;;;;14.30;10.43;;;;;;;;;;5360746;26;20077;-44
2024/04/10 13:04:07;;;;;;;13.75;9.95;;;;;;;;;;5360670;26;20000;-42
2024/04/10 13:06:34;;;;;;;13.13;9.73;;;;;;;;;;5360740;26;19996;-42
2024/04/10 13:09:03;;;;;;;13.82;9.80;;;;;;;;;;5360679;26;19996;-42
2024/04/10 13:11:29;;;;;;;16.38;9.57;;;;;;;;;;5360487;26;19989;-43
2024/04/10 13:13:56;;;;;;;13.48;9.63;;;;;;;;;;5360787;26;19988;-42
2024/04/10 13:16:22;;;;;;;12.13;9.68;;;;;;;;;;5360574;26;20123;-41
2024/04/10 13:18:52;;;;;;;12.48;9.30;;;;;;;;;;5381544;26;19988;-43
2024/04/10 13:21:19;;;;;;;12.73;9.65;;;;;;;;;;5392279;26;20026;-47
2024/04/10 13:23:46;;;;;;;13.85;9.27;;;;;;;;;;5392852;26;19992;-50
2024/04/10 13:26:13;;;;;;;14.02;9.35;;;;;;;;;;5395225;26;19988;-49
2024/04/10 13:28:41;;;;;;;16.88;9.38;;;;;;;;;;5395538;26;20093;-42
2024/04/10 13:31:12;;;;;;;15.00;9.40;;;;;;;;;;5394700;26;19996;-43
2024/04/10 13:33:39;;;;;;;13.57;9.55;;;;;;;;;;5395212;26;20008;-43
2024/04/10 13:36:12;;;;;;;13.55;9.63;;;;;;;;;;5395499;26;19988;-46
2024/04/10 13:38:43;;;;;;;11.68;9.32;;;;;;;;;;5391609;26;19993;-40
2024/04/10 13:41:10;;;;;;;14.13;10.02;;;;;;;;;;5383190;26;20253;-37
2024/04/10 13:43:38;;;;;;;14.73;11.00;;;;;;;;;;5379170;26;20093;-49
2024/04/10 13:46:07;;;;;;;14.38;11.00;;;;;;;;;;5377117;26;20042;-37
2024/04/10 13:48:34;;;;;;;14.73;11.50;;;;;;;;;;5375101;26;20009;-56
2024/04/10 13:51:01;;;;;;;18.27;12.95;;;;;;;;;;5381248;26;20003;-39
2024/04/10 13:53:28;;;;;;;18.70;13.32;;;;;;;;;;5387579;26;20051;-45
2024/04/10 13:56:04;;;;;;;21.55;13.73;;;;;;;;;;5389458;26;20164;-42
2024/04/10 13:58:32;;;;;;;17.08;13.77;;;;;;;;;;5388080;26;20129;-41
2024/04/10 14:00:58;;;;;;;20.17;14.98;;;;;;;;;;5378143;26;20052;-42
2024/04/10 14:03:25;;;;;;;19.58;15.80;;;;;;;;;;5368086;26;20222;-40
2024/04/10 14:06:09;;;;;;;22.08;16.40;;;;;;;;;;5368267;26;19999;-44
2024/04/10 14:08:37;;;;;;;19.15;17.17;;;;;;;;;;5394582;26;19984;-42
2024/04/10 14:11:05;;;;;;;21.25;18.17;;;;;;;;;;5394676;26;19984;-40
2024/04/10 14:13:35;;;;;;;22.20;18.85;;;;;;;;;;5394052;26;20032;-49
2024/04/10 14:16:03;;;;;;;30.10;19.75;;;;;;;;;;5394530;26;19995;-44
2024/04/10 14:18:30;;;;;;;23.77;19.83;;;;;;;;;;5383678;26;19996;-40
2024/04/10 14:20:59;;;;;;;25.48;21.05;;;;;;;;;;5383782;26;20000;-42
2024/04/10 14:23:26;;;;;;;28.45;21.27;;;;;;;;;;5376411;26;19997;-47
2024/04/10 14:25:54;;;;;;;24.60;21.65;;;;;;;;;;5362473;26;19985;-48
2024/04/10 14:28:25;;;;;;;24.00;21.40;;;;;;;;;;5359459;26;19997;-38
2024/04/10 14:31:07;;;;;;;24.15;21.45;;;;;;;;;;5359541;26;20201;-38
2024/04/10 14:33:33;;;;;;;;;;;;;;;;;;5359899;26;20000;-39